Time;durP1;ratioP1;P1;durP2;ratioP2;P2;SDS_P1;SDS_P2;PMS_P1;PMS_P2;Temp;Humidity;BMP_temperature;BMP_pressure;BME280_temperature;BME280_humidity;BME280_pressure;Samples;Min_cycle;Max_cycle;Signal;HPM_P1;HPM_P2
2021/04/25 00:01:04;;;;;;;9.50;2.70;;;;;;;6.09;77.74;101565.56;5186859;28;20030;-78
2021/04/25 00:03:34;;;;;;;12.30;2.33;;;;;;;6.03;78.70;101559.50;5184708;28;20033;-79
2021/04/25 00:06:05;;;;;;;10.27;2.50;;;;;;;5.97;78.50;101557.81;5184873;28;20030;-77
2021/04/25 00:08:35;;;;;;;12.05;2.63;;;;;;;6.07;78.92;101553.47;5184050;28;20025;-79
2021/04/25 00:11:06;;;;;;;10.82;2.60;;;;;;;6.00;79.11;101554.34;5186915;28;20317;-78
2021/04/25 00:13:36;;;;;;;12.05;2.70;;;;;;;6.00;79.10;101556.94;5182974;28;20030;-77
2021/04/25 00:16:07;;;;;;;9.90;2.20;;;;;;;5.90;79.68;101557.81;5185536;28;20022;-78
2021/04/25 00:18:38;;;;;;;13.13;3.15;;;;;;;5.84;80.96;101550.03;5184767;28;20038;-77
2021/04/25 00:21:09;;;;;;;13.23;2.97;;;;;;;5.78;81.02;101557.78;5183885;28;20029;-79
2021/04/25 00:23:39;;;;;;;11.40;3.50;;;;;;;5.78;81.64;101553.50;5189517;28;20048;-77
2021/04/25 00:26:10;;;;;;;14.18;3.13;;;;;;;5.74;81.52;101561.25;5198209;28;20034;-77
2021/04/25 00:28:40;;;;;;;13.57;3.05;;;;;;;5.92;81.32;101556.09;5182343;28;20036;-79
2021/04/25 00:31:10;;;;;;;9.93;2.95;;;;;;;5.73;81.22;101559.53;5180159;28;20033;-79
2021/04/25 00:33:41;;;;;;;13.70;2.78;;;;;;;5.55;82.50;101554.34;5176776;28;20022;-78
2021/04/25 00:36:11;;;;;;;12.32;3.22;;;;;;;5.77;81.06;101559.50;5188656;28;20049;-79
2021/04/25 00:38:41;;;;;;;13.00;2.90;;;;;;;5.83;80.68;101553.50;5182553;28;20241;-78
2021/04/25 00:41:11;;;;;;;10.88;2.90;;;;;;;5.74;80.57;101558.66;5189738;28;20034;-77
2021/04/25 00:43:42;;;;;;;10.80;2.90;;;;;;;5.73;80.76;101557.78;5180733;28;20049;-77
2021/04/25 00:46:12;;;;;;;10.85;2.80;;;;;;;5.77;80.78;101556.06;5173006;28;20033;-78
2021/04/25 00:48:42;;;;;;;10.80;3.20;;;;;;;5.74;79.63;101564.69;5182695;28;20479;-77
2021/04/25 00:51:13;;;;;;;12.90;3.30;;;;;;;5.63;81.43;101561.28;5194414;28;20025;-77
2021/04/25 00:53:44;;;;;;;13.95;3.30;;;;;;;5.70;81.12;101554.31;5178676;28;20025;-77
2021/04/25 00:56:15;;;;;;;8.70;2.70;;;;;;;5.68;80.44;101561.25;5191150;28;20484;-78
2021/04/25 00:58:46;;;;;;;9.25;2.92;;;;;;;5.70;81.28;101555.19;5181507;28;20030;-77
2021/04/25 01:01:17;;;;;;;11.25;3.25;;;;;;;5.55;81.71;101559.53;5181591;28;20404;-77
2021/04/25 01:03:48;;;;;;;6.78;2.75;;;;;;;5.39;81.57;101555.19;5178798;28;20033;-78
2021/04/25 01:06:18;;;;;;;10.80;3.33;;;;;;;5.21;82.94;101551.72;5184412;28;20036;-77
2021/04/25 01:08:48;;;;;;;10.45;3.28;;;;;;;5.13;83.81;101559.47;5181832;28;20397;-77
2021/04/25 01:11:19;;;;;;;11.93;3.20;;;;;;;5.02;84.01;101553.41;5181040;28;20030;-77
2021/04/25 01:13:50;;;;;;;10.60;3.00;;;;;;;4.86;84.89;101549.06;5192234;28;20024;-77
2021/04/25 01:16:20;;;;;;;9.98;2.97;;;;;;;4.89;84.97;101555.94;5187284;28;20087;-77
2021/04/25 01:18:51;;;;;;;11.82;3.00;;;;;;;5.10;83.42;101550.81;5193163;28;20418;-77
2021/04/25 01:21:22;;;;;;;11.82;3.30;;;;;;;4.85;83.19;101560.28;5187783;28;20032;-77
2021/04/25 01:23:52;;;;;;;9.77;3.00;;;;;;;5.04;83.99;101554.28;5185987;28;20187;-78
2021/04/25 01:26:22;;;;;;;21.02;3.20;;;;;;;4.86;84.14;101554.25;5191791;28;20113;-78
2021/04/25 01:28:53;;;;;;;10.98;3.15;;;;;;;4.80;83.88;101549.03;5186006;28;20480;-79
2021/04/25 01:31:24;;;;;;;8.82;2.90;;;;;;;4.75;85.11;101555.91;5184685;28;20093;-77
2021/04/25 01:33:54;;;;;;;10.95;2.97;;;;;;;4.76;84.87;101543.81;5180928;28;20026;-78
2021/04/25 01:36:25;;;;;;;11.15;3.58;;;;;;;4.69;85.10;101548.13;5179725;28;20022;-77
2021/04/25 01:38:56;;;;;;;10.32;3.50;;;;;;;4.78;85.24;101549.91;5186819;28;20056;-77
2021/04/25 01:41:26;;;;;;;12.27;3.40;;;;;;;4.56;85.25;101563.59;5183999;28;20026;-77
2021/04/25 01:43:57;;;;;;;13.60;3.53;;;;;;;4.55;85.36;101567.03;5179425;28;20082;-77
2021/04/25 01:46:27;;;;;;;12.68;3.45;;;;;;;4.67;85.52;101565.34;5179428;28;20735;-77
2021/04/25 01:48:58;;;;;;;12.93;3.83;;;;;;;4.51;85.53;101576.53;5181098;28;20022;-77
2021/04/25 01:51:28;;;;;;;12.10;3.33;;;;;;;4.53;86.29;101567.06;5180974;28;20026;-78
2021/04/25 01:53:58;;;;;;;11.27;3.30;;;;;;;4.51;86.33;101566.19;5185794;28;20017;-77
2021/04/25 01:56:28;;;;;;;10.63;3.13;;;;;;;4.47;85.76;101567.00;5181927;28;20034;-78
2021/04/25 01:58:59;;;;;;;9.65;3.17;;;;;;;4.32;85.28;101563.47;5180476;28;20018;-78
2021/04/25 02:01:29;;;;;;;14.70;3.70;;;;;;;4.28;86.62;101566.91;5180793;28;20368;-78
2021/04/25 02:04:00;;;;;;;11.00;3.78;;;;;;;4.48;85.54;101560.97;5180278;28;20168;-77
2021/04/25 02:06:33;;;;;;;14.55;3.72;;;;;;;4.44;86.14;101571.31;5185683;28;20057;-77
2021/04/25 02:09:04;;;;;;;12.27;3.67;;;;;;;4.27;87.27;101565.19;5200135;28;20037;-77
2021/04/25 02:11:34;;;;;;;11.65;3.33;;;;;;;4.20;87.51;101566.88;5192370;28;20018;-78
2021/04/25 02:14:06;;;;;;;15.48;3.92;;;;;;;4.26;87.05;101568.63;5190260;28;20046;-77
2021/04/25 02:16:37;;;;;;;18.65;4.15;;;;;;;4.01;88.87;101567.63;5190184;28;20030;-78
2021/04/25 02:19:07;;;;;;;12.55;3.58;;;;;;;4.06;87.50;101565.03;5189911;28;20029;-77
2021/04/25 02:21:37;;;;;;;14.88;4.03;;;;;;;4.00;88.94;101568.47;5188731;28;20085;-77
2021/04/25 02:24:08;;;;;;;12.27;3.88;;;;;;;3.83;89.55;101572.66;5195316;28;20025;-78
2021/04/25 02:26:38;;;;;;;11.48;3.85;;;;;;;4.10;87.03;101572.84;5200264;28;20481;-78
2021/04/25 02:29:09;;;;;;;16.02;4.40;;;;;;;4.13;87.14;101574.59;5190593;28;20061;-78
2021/04/25 02:31:39;;;;;;;13.85;4.20;;;;;;;4.33;87.11;101576.41;5190592;28;20060;-78
2021/04/25 02:34:09;;;;;;;11.85;4.18;;;;;;;4.06;87.58;101570.22;5190516;28;20443;-77
2021/04/25 02:36:40;;;;;;;13.93;4.35;;;;;;;4.01;88.22;101580.56;5191242;28;20034;-76
2021/04/25 02:39:11;;;;;;;14.20;3.83;;;;;;;4.02;89.12;101579.69;5191856;28;20113;-76
2021/04/25 02:41:41;;;;;;;14.48;3.88;;;;;;;3.99;88.25;101583.97;5194380;28;20072;-76
2021/04/25 02:44:11;;;;;;;15.68;4.22;;;;;;;3.82;89.02;101581.25;5194764;28;20037;-76
2021/04/25 02:46:42;;;;;;;14.70;4.40;;;;;;;3.79;88.90;101576.06;5192478;28;20025;-76
2021/04/25 02:49:12;;;;;;;12.45;4.35;;;;;;;3.68;90.01;101582.00;5189070;28;20029;-77
2021/04/25 02:51:43;;;;;;;9.95;4.18;;;;;;;3.64;89.73;101581.09;5196037;28;20022;-76
2021/04/25 02:54:14;;;;;;;14.55;4.97;;;;;;;3.47;91.23;101586.09;5196314;28;20089;-77
2021/04/25 02:56:45;;;;;;;14.55;4.40;;;;;;;3.43;91.37;101584.34;5193886;28;20052;-76
2021/04/25 02:59:15;;;;;;;18.45;4.70;;;;;;;3.48;91.09;101587.84;5194914;28;20357;-78
2021/04/25 03:01:45;;;;;;;12.85;4.47;;;;;;;3.63;90.79;101589.69;5195484;28;20083;-76
2021/04/25 03:04:15;;;;;;;13.25;4.45;;;;;;;3.54;90.40;101593.94;5195302;28;20048;-77
2021/04/25 03:06:46;;;;;;;20.73;4.82;;;;;;;3.47;91.83;101586.09;5194480;28;20030;-77
2021/04/25 03:09:16;;;;;;;15.07;4.45;;;;;;;3.77;89.68;101593.28;5191257;28;20030;-78
2021/04/25 03:11:46;;;;;;;12.38;4.38;;;;;;;3.72;89.37;101589.78;5214107;23;20014;-78
2021/04/25 03:14:17;;;;;;;10.00;4.25;;;;;;;3.53;90.44;101593.94;5162805;28;20042;-79
2021/04/25 03:16:47;;;;;;;16.13;4.50;;;;;;;3.58;89.84;101594.84;5147879;28;20031;-78
2021/04/25 03:19:18;;;;;;;13.63;4.05;;;;;;;3.58;89.61;101595.72;5134371;28;20501;-78
2021/04/25 03:21:48;;;;;;;10.90;4.22;;;;;;;3.47;90.99;101596.44;5136265;28;20026;-78
2021/04/25 03:24:19;;;;;;;13.98;4.45;;;;;;;3.54;89.42;101587.91;5112860;28;20034;-78
2021/04/25 03:26:50;;;;;;;12.18;4.45;;;;;;;3.46;90.52;101595.59;5130739;28;20098;-78
2021/04/25 03:29:20;;;;;;;10.30;4.18;;;;;;;3.43;90.14;101590.41;5138231;28;20103;-78
2021/04/25 03:31:50;;;;;;;18.17;5.07;;;;;;;3.54;88.61;101591.34;5125676;28;20073;-78
2021/04/25 03:34:20;;;;;;;11.93;4.70;;;;;;;3.59;89.00;101594.84;5115498;29;20031;-79
2021/04/25 03:36:51;;;;;;;16.38;4.70;;;;;;;3.40;90.95;101592.94;5116492;28;20027;-79
2021/04/25 03:39:21;;;;;;;13.90;4.38;;;;;;;3.32;91.32;101597.19;5115777;29;20028;-78
2021/04/25 03:41:51;;;;;;;12.82;3.92;;;;;;;3.47;90.05;101594.75;5116166;29;20135;-79
2021/04/25 03:44:22;;;;;;;16.50;5.28;;;;;;;3.42;89.16;101603.28;5126685;28;20038;-78
2021/04/25 03:46:52;;;;;;;15.25;5.03;;;;;;;3.51;89.69;101598.22;5127493;28;20027;-78
2021/04/25 03:49:23;;;;;;;14.90;4.47;;;;;;;3.54;88.93;101595.66;5118259;29;20034;-77
2021/04/25 03:51:55;;;;;;;14.88;5.47;;;;;;;3.43;90.40;101594.69;5115399;29;20059;-78
2021/04/25 03:54:25;;;;;;;15.13;4.95;;;;;;;3.44;90.01;101594.72;5131363;28;20041;-78
2021/04/25 03:56:55;;;;;;;15.93;4.60;;;;;;;3.47;89.19;101593.84;5121117;28;20027;-78
2021/04/25 03:59:26;;;;;;;13.15;4.50;;;;;;;3.49;90.02;101592.16;5115927;29;20031;-78
2021/04/25 04:01:56;;;;;;;16.00;4.30;;;;;;;3.48;89.66;101600.75;5118364;28;20137;-78
2021/04/25 04:04:27;;;;;;;16.45;4.32;;;;;;;3.38;89.52;101596.38;5133730;28;20523;-78
2021/04/25 04:06:57;;;;;;;16.38;4.95;;;;;;;3.52;89.14;101594.78;5121127;28;20055;-79
2021/04/25 04:09:27;;;;;;;16.88;4.68;;;;;;;3.49;88.89;101594.72;5117525;29;20032;-78
2021/04/25 04:11:57;;;;;;;12.50;4.80;;;;;;;3.30;90.44;101598.00;5112831;29;20104;-78
2021/04/25 04:14:28;;;;;;;11.85;4.18;;;;;;;3.39;89.43;101600.69;5115969;29;20028;-78
2021/04/25 04:16:58;;;;;;;14.38;4.65;;;;;;;3.36;88.58;101593.75;5118479;28;20038;-79
2021/04/25 04:19:28;;;;;;;12.25;4.30;;;;;;;3.45;89.30;101599.03;5116845;29;20152;-78
2021/04/25 04:21:59;;;;;;;11.13;4.15;;;;;;;3.45;88.68;101608.47;5115348;28;20598;-79
2021/04/25 04:24:29;;;;;;;15.52;4.55;;;;;;;3.49;88.98;101607.66;5128953;28;20435;-79
2021/04/25 04:27:00;;;;;;;15.82;4.68;;;;;;;3.61;88.79;101601.75;5125052;28;20024;-79
2021/04/25 04:29:30;;;;;;;17.35;4.25;;;;;;;3.60;88.93;101604.34;5121485;28;20502;-79
2021/04/25 04:32:00;;;;;;;13.57;4.10;;;;;;;3.54;88.87;101611.16;5115854;28;20031;-79
2021/04/25 04:34:31;;;;;;;14.90;3.95;;;;;;;3.80;87.90;101603.63;5119764;28;20043;-79
2021/04/25 04:37:01;;;;;;;17.23;4.10;;;;;;;3.63;87.49;101605.22;5116392;28;20489;-78
2021/04/25 04:39:31;;;;;;;16.23;4.65;;;;;;;3.80;86.76;101602.78;5114231;28;20035;-78
2021/04/25 04:42:02;;;;;;;17.27;4.38;;;;;;;3.97;87.34;101599.47;5131130;28;20037;-78
2021/04/25 04:44:32;;;;;;;16.85;3.80;;;;;;;3.95;86.65;101592.56;5121714;28;20034;-78
2021/04/25 04:47:03;;;;;;;11.25;3.63;;;;;;;3.88;86.49;101601.13;5115463;29;20023;-78
2021/04/25 04:49:35;;;;;;;13.23;4.45;;;;;;;3.93;88.33;101602.88;5113798;29;20034;-78
2021/04/25 04:52:05;;;;;;;12.85;3.90;;;;;;;4.20;86.82;101599.63;5115316;29;20023;-78
2021/04/25 04:54:35;;;;;;;9.98;3.90;;;;;;;4.58;84.36;101593.81;5126683;28;20042;-78
2021/04/25 04:57:06;;;;;;;10.40;3.85;;;;;;;4.57;83.63;101602.44;5124431;28;20039;-78
2021/04/25 04:59:36;;;;;;;11.43;3.55;;;;;;;4.90;82.52;101596.53;5113328;28;20039;-78
2021/04/25 05:02:06;;;;;;;10.15;3.40;;;;;;;5.60;81.03;101594.09;5115031;29;20038;-79
2021/04/25 05:04:36;;;;;;;10.60;2.92;;;;;;;6.42;75.95;101590.59;5125077;28;20038;-79
2021/04/25 05:07:07;;;;;;;11.25;2.90;;;;;;;7.58;72.81;101589.13;5118414;28;20108;-80
2021/04/25 05:09:37;;;;;;;12.63;3.08;;;;;;;8.58;68.52;101585.59;5116914;28;20027;-80
2021/04/25 05:12:08;;;;;;;10.02;2.85;;;;;;;10.11;63.49;101579.03;5133268;28;20054;-80
2021/04/25 05:14:39;;;;;;;11.20;3.13;;;;;;;11.09;61.79;101586.63;5122969;28;20086;-80
2021/04/25 05:17:10;;;;;;;8.93;2.75;;;;;;;10.65;61.99;101582.38;5129803;28;20536;-80
2021/04/25 05:19:40;;;;;;;13.60;2.72;;;;;;;10.94;61.18;101585.25;5126110;28;20649;-80
2021/04/25 05:22:10;;;;;;;10.70;2.33;;;;;;;10.95;61.09;101586.97;5098413;29;20054;-80
2021/04/25 05:24:41;;;;;;;7.15;2.17;;;;;;;10.42;60.61;101589.78;5139832;28;20481;-80
2021/04/25 05:27:11;;;;;;;8.18;2.50;;;;;;;10.93;59.63;101593.97;5130033;28;20073;-80
2021/04/25 05:29:41;;;;;;;12.10;2.50;;;;;;;10.33;61.32;101595.19;5123844;28;20034;-80
2021/04/25 05:32:11;;;;;;;10.13;2.28;;;;;;;11.12;61.49;101599.66;5134239;28;20038;-80
2021/04/25 05:34:42;;;;;;;7.55;2.40;;;;;;;12.68;56.34;101592.28;5116092;29;20035;-80
2021/04/25 05:37:12;;;;;;;8.02;2.30;;;;;;;13.07;55.68;101608.63;5120352;29;20038;-81
2021/04/25 05:39:42;;;;;;;5.55;2.00;;;;;;;13.34;54.32;101601.72;5119239;28;20042;-80
2021/04/25 05:42:13;;;;;;;10.32;2.33;;;;;;;14.42;52.40;101593.75;5120350;28;20050;-80
2021/04/25 05:44:43;;;;;;;5.78;2.22;;;;;;;14.44;51.99;101596.34;5112332;28;20047;-78
2021/04/25 05:47:13;;;;;;;9.73;2.22;;;;;;;14.36;52.33;101593.09;5113381;28;20027;-78
2021/04/25 05:49:44;;;;;;;7.38;2.03;;;;;;;11.93;55.35;101604.78;5108253;29;20019;-78
2021/04/25 05:52:14;;;;;;;8.68;2.35;;;;;;;10.26;61.02;101617.06;5111451;29;20031;-77
2021/04/25 05:54:44;;;;;;;10.88;2.38;;;;;;;8.95;64.12;101623.41;5122414;28;20029;-77
2021/04/25 05:57:14;;;;;;;10.25;2.47;;;;;;;8.34;65.21;101626.69;5118960;28;20046;-77
2021/04/25 05:59:45;;;;;;;12.70;2.28;;;;;;;7.60;67.05;101624.69;5108681;29;20163;-77
2021/04/25 06:02:16;;;;;;;10.93;2.60;;;;;;;7.44;69.53;101630.84;5109296;28;20028;-77
2021/04/25 06:04:46;;;;;;;11.40;2.88;;;;;;;7.63;69.27;101618.56;5108953;29;20457;-77
2021/04/25 06:07:16;;;;;;;9.75;2.75;;;;;;;7.24;70.19;101618.84;5097596;28;20096;-77
2021/04/25 06:09:46;;;;;;;10.88;2.53;;;;;;;7.27;71.15;101625.75;5121105;28;20490;-77
2021/04/25 06:12:17;;;;;;;10.40;2.50;;;;;;;7.36;72.90;101626.56;5100072;28;20093;-77
2021/04/25 06:14:47;;;;;;;17.77;3.08;;;;;;;7.03;72.92;101629.34;5111166;29;20032;-77
2021/04/25 06:17:18;;;;;;;15.40;2.85;;;;;;;6.76;73.11;101623.41;5113316;28;20027;-78
2021/04/25 06:19:48;;;;;;;10.75;2.80;;;;;;;7.05;73.19;101629.31;5121849;28;20067;-78
2021/04/25 06:22:19;;;;;;;12.20;2.38;;;;;;;7.85;70.40;101626.22;5111272;29;20067;-78
2021/04/25 06:24:54;;;;;;;11.52;2.42;;;;;;;10.35;63.95;101612.53;5128262;28;20031;-79
2021/04/25 06:27:25;;;;;;;8.20;2.20;;;;;;;11.80;58.86;101614.69;5120344;28;20377;-79
2021/04/25 06:29:56;;;;;;;10.57;2.10;;;;;;;13.00;56.04;101604.50;5125350;28;20508;-79
2021/04/25 06:32:26;;;;;;;10.70;2.30;;;;;;;13.39;54.70;101603.28;5113356;29;20031;-79
2021/04/25 06:34:56;;;;;;;11.97;2.27;;;;;;;14.28;52.22;101601.25;5120238;28;20027;-79
2021/04/25 06:37:27;;;;;;;6.55;1.80;;;;;;;14.64;52.63;101601.75;5124727;28;20279;-79
2021/04/25 06:39:57;;;;;;;7.45;1.88;;;;;;;15.97;49.20;101597.38;5114416;28;20035;-80
2021/04/25 06:42:27;;;;;;;5.95;1.90;;;;;;;16.04;49.42;101598.84;5127463;28;20063;-79
2021/04/25 06:44:58;;;;;;;8.65;2.10;;;;;;;15.92;49.88;101599.38;5116762;28;20118;-79
2021/04/25 06:47:28;;;;;;;7.75;2.10;;;;;;;16.64;46.62;101593.63;5113043;29;20039;-79
2021/04/25 06:49:58;;;;;;;10.23;1.95;;;;;;;16.63;47.09;101591.91;5116064;29;20082;-79
2021/04/25 06:52:29;;;;;;;9.67;2.20;;;;;;;16.29;46.76;101609.22;5123464;28;20027;-79
2021/04/25 06:54:59;;;;;;;9.10;2.08;;;;;;;14.19;50.32;101606.84;5137241;28;20804;-79
2021/04/25 06:57:30;;;;;;;9.27;1.93;;;;;;;12.93;52.86;101620.44;5123772;28;20039;-78
2021/04/25 07:00:00;;;;;;;13.10;2.40;;;;;;;12.19;55.19;101620.72;5117963;29;20289;-78
2021/04/25 07:02:31;;;;;;;7.70;1.73;;;;;;;11.33;57.65;101619.25;5114680;28;20108;-78
2021/04/25 07:05:03;;;;;;;10.13;1.90;;;;;;;10.31;59.62;101628.31;5127510;28;20604;-78
2021/04/25 07:07:34;;;;;;;12.82;1.70;;;;;;;9.58;62.49;101640.78;5119230;28;20034;-77
2021/04/25 07:10:05;;;;;;;14.25;2.35;;;;;;;9.23;62.91;101629.97;5114655;28;20038;-77
2021/04/25 07:12:36;;;;;;;9.68;1.95;;;;;;;9.02;63.16;101635.47;5127502;28;20027;-77
2021/04/25 07:15:07;;;;;;;9.98;2.33;;;;;;;8.64;65.23;101635.06;5115158;28;20037;-76
2021/04/25 07:17:38;;;;;;;9.05;2.10;;;;;;;8.47;65.38;101639.59;5111304;29;20031;-76
2021/04/25 07:20:09;;;;;;;10.02;1.83;;;;;;;8.00;65.65;101644.31;5114941;28;20045;-76
2021/04/25 07:22:40;;;;;;;11.55;2.08;;;;;;;7.51;67.01;101644.69;5111487;29;20119;-76
2021/04/25 07:25:11;;;;;;;12.68;1.85;;;;;;;7.61;67.42;101646.34;5128044;28;20098;-77
2021/04/25 07:27:41;;;;;;;11.65;2.05;;;;;;;7.54;67.45;101649.88;5125650;28;20511;-76
2021/04/25 07:30:12;;;;;;;12.25;2.20;;;;;;;7.83;67.70;101640.97;5114923;29;20040;-78
2021/04/25 07:32:42;;;;;;;9.57;2.10;;;;;;;7.55;67.60;101633.38;5116608;29;20083;-79
2021/04/25 07:35:13;;;;;;;13.77;2.40;;;;;;;7.66;68.31;101629.84;5112035;28;20031;-79
2021/04/25 07:37:44;;;;;;;11.00;2.08;;;;;;;7.90;67.79;101629.63;5114844;28;20015;-79
2021/04/25 07:40:15;;;;;;;11.98;2.08;;;;;;;8.13;66.21;101635.53;5114152;28;20145;-79
2021/04/25 07:42:46;;;;;;;9.10;2.08;;;;;;;7.92;66.95;101642.66;5114696;28;20700;-79
2021/04/25 07:45:16;;;;;;;13.90;1.98;;;;;;;7.98;67.43;101638.25;5114506;29;20050;-79
2021/04/25 07:47:46;;;;;;;12.88;2.42;;;;;;;7.91;66.45;101646.97;5116903;29;20074;-79
2021/04/25 07:50:17;;;;;;;9.05;1.58;;;;;;;7.62;64.76;101648.06;5127608;28;20380;-79
2021/04/25 07:52:47;;;;;;;8.57;1.40;;;;;;;7.54;62.88;101640.31;5119944;28;20030;-78
2021/04/25 07:55:18;;;;;;;7.78;1.25;;;;;;;7.65;62.89;101642.84;5137121;28;20050;-78
2021/04/25 07:57:48;;;;;;;9.55;1.60;;;;;;;8.68;61.70;101641.09;5119876;28;20051;-79
2021/04/25 08:00:19;;;;;;;6.13;1.40;;;;;;;8.36;60.07;101640.56;5117635;29;20034;-79
2021/04/25 08:02:49;;;;;;;7.88;1.40;;;;;;;8.25;60.97;101638.03;5115746;29;20103;-79
2021/04/25 08:05:19;;;;;;;7.95;1.30;;;;;;;8.11;60.91;101645.09;5117073;29;20031;-79
2021/04/25 08:07:51;;;;;;;8.38;1.52;;;;;;;7.70;61.50;101648.91;5115387;29;20028;-79
2021/04/25 08:10:21;;;;;;;9.32;1.48;;;;;;;7.99;61.58;101650.41;5116038;28;20031;-79
2021/04/25 08:12:52;;;;;;;4.22;1.50;;;;;;;8.48;60.99;101651.72;5130531;28;20029;-79
2021/04/25 08:15:23;;;;;;;5.13;1.50;;;;;;;8.15;60.77;101649.41;5121248;28;20115;-78
2021/04/25 08:17:56;;;;;;;11.65;1.77;;;;;;;8.19;61.67;101650.28;5116957;29;20437;-79
2021/04/25 08:20:26;;;;;;;9.50;2.10;;;;;;;8.20;60.63;101652.84;5117593;29;20042;-79
2021/04/25 08:22:56;;;;;;;13.18;1.80;;;;;;;8.57;60.21;101642.97;5113940;28;20032;-79
2021/04/25 08:25:27;;;;;;;8.25;1.58;;;;;;;10.49;56.91;101633.22;5133631;28;20051;-79
2021/04/25 08:27:57;;;;;;;5.55;1.50;;;;;;;9.90;56.58;101641.16;5116625;28;20162;-79
2021/04/25 08:30:27;;;;;;;6.45;1.65;;;;;;;9.71;57.42;101637.13;5123640;28;20038;-79
2021/04/25 08:32:58;;;;;;;9.27;1.60;;;;;;;9.56;58.36;101639.94;5122688;28;20035;-79
2021/04/25 08:35:28;;;;;;;6.20;1.63;;;;;;;8.78;59.01;101647.94;5123067;28;20462;-78
2021/04/25 08:37:58;;;;;;;8.52;1.85;;;;;;;8.73;59.44;101641.91;5115342;29;20027;-79
2021/04/25 08:40:29;;;;;;;7.85;1.90;;;;;;;8.87;59.98;101640.88;5118759;28;20544;-78
2021/04/25 08:43:00;;;;;;;8.68;1.60;;;;;;;9.11;59.35;101645.81;5120175;28;20035;-79
2021/04/25 08:45:30;;;;;;;6.70;2.15;;;;;;;8.83;59.90;101657.44;5116738;28;20119;-79
2021/04/25 08:48:01;;;;;;;7.22;2.00;;;;;;;9.02;58.13;101650.25;5111261;28;20031;-79
2021/04/25 08:50:32;;;;;;;6.65;1.77;;;;;;;9.25;57.58;101647.34;5112369;28;20066;-79
2021/04/25 08:53:03;;;;;;;6.07;1.65;;;;;;;10.18;55.62;101638.09;5116452;28;20027;-79
2021/04/25 08:55:33;;;;;;;8.25;2.20;;;;;;;9.99;55.80;101651.47;5125686;28;20075;-79
2021/04/25 08:58:05;;;;;;;6.82;1.95;;;;;;;9.71;55.79;101647.56;5121681;28;20027;-79
2021/04/25 09:00:35;;;;;;;4.05;1.58;;;;;;;10.52;54.69;101654.06;5117281;28;20042;-79
2021/04/25 09:03:06;;;;;;;7.68;1.80;;;;;;;13.55;50.90;101629.97;5120017;28;20114;-79
2021/04/25 09:05:36;;;;;;;6.50;1.80;;;;;;;14.46;48.95;101633.97;5129577;28;20066;-79
2021/04/25 09:08:07;;;;;;;6.55;2.10;;;;;;;14.97;47.23;101630.31;5116498;28;20035;-79
2021/04/25 09:10:40;;;;;;;8.32;2.20;;;;;;;14.42;47.20;101622.69;5116448;28;20123;-77
2021/04/25 09:13:22;;;;;;;7.95;2.00;;;;;;;14.79;47.73;101630.16;5121526;28;20029;-80
2021/04/25 09:15:53;;;;;;;8.88;2.22;;;;;;;13.08;48.80;101633.97;5107974;28;20035;-78
2021/04/25 09:18:31;;;;;;;6.68;1.80;;;;;;;12.94;50.61;101643.16;5109628;28;20053;-78
2021/04/25 09:21:11;;;;;;;6.80;2.22;;;;;;;12.55;50.30;101628.50;5105359;28;20524;-80
2021/04/25 09:23:42;;;;;;;6.95;2.15;;;;;;;12.66;51.01;101641.31;5112384;28;20182;-79
2021/04/25 09:26:12;;;;;;;6.55;1.80;;;;;;;12.91;51.76;101622.22;5123438;28;20129;-78
2021/04/25 09:28:59;;;;;;;4.32;1.85;;;;;;;12.31;51.55;101630.91;5102322;28;20513;-80
2021/04/25 09:31:29;;;;;;;5.70;1.80;;;;;;;12.80;51.67;101631.31;5103946;28;20054;-79
2021/04/25 09:33:59;;;;;;;6.28;1.80;;;;;;;13.07;50.75;101620.91;5108308;28;20046;-79
2021/04/25 09:36:29;;;;;;;7.63;2.20;;;;;;;12.39;52.35;101629.78;5107394;28;20048;-80
2021/04/25 09:39:14;;;;;;;7.07;2.00;;;;;;;11.65;53.92;101630.75;5111774;29;20027;-80
2021/04/25 09:41:46;;;;;;;7.45;1.92;;;;;;;12.02;54.18;101631.63;5117697;28;20094;-80
2021/04/25 09:44:37;;;;;;;8.48;2.33;;;;;;;12.48;52.25;101623.44;5114084;28;20134;-80
2021/04/25 09:47:07;;;;;;;12.63;2.33;;;;;;;12.98;52.35;101621.16;5106966;29;20048;-79
2021/04/25 09:49:40;;;;;;;6.80;2.17;;;;;;;11.47;54.40;101628.53;5113041;29;20069;-80
2021/04/25 09:52:31;;;;;;;9.93;2.10;;;;;;;11.73;53.29;101623.59;5107270;29;20044;-80
2021/04/25 09:55:22;;;;;;;6.40;1.92;;;;;;;11.42;53.71;101622.53;5118929;28;20035;-80
2021/04/25 09:58:03;;;;;;;18.65;8.57;;;;;;;11.72;54.24;101629.75;5108321;29;20030;-80
2021/04/25 10:00:39;;;;;;;8.18;3.17;;;;;;;11.36;54.77;101629.66;5107855;28;20066;-79
2021/04/25 10:03:12;;;;;;;9.82;2.90;;;;;;;11.45;54.32;101622.47;5112325;28;20024;-78
2021/04/25 10:06:00;;;;;;;18.63;6.72;;;;;;;11.40;53.74;101623.47;5120562;28;20043;-81
2021/04/25 10:08:35;;;;;;;11.48;4.38;;;;;;;11.46;53.35;101629.41;5113614;28;20031;-80
2021/04/25 10:11:07;;;;;;;8.68;3.35;;;;;;;11.94;53.10;101622.25;5111383;28;20768;-79
2021/04/25 10:13:44;;;;;;;11.40;3.70;;;;;;;11.81;53.40;101623.41;5113530;28;20038;-80
2021/04/25 10:16:16;;;;;;;5.22;1.85;;;;;;;11.63;52.58;101611.59;5125487;28;20828;-79
2021/04/25 10:18:48;;;;;;;13.07;3.40;;;;;;;11.73;53.44;101612.25;5110626;29;20620;-79
2021/04/25 10:21:19;;;;;;;10.43;3.00;;;;;;;11.93;54.69;101617.91;5107828;28;20489;-78
2021/04/25 10:23:49;;;;;;;9.38;2.30;;;;;;;12.11;53.84;101602.56;5116717;28;20034;-79
2021/04/25 10:26:22;;;;;;;10.65;2.35;;;;;;;12.06;53.25;101604.44;5126732;28;20058;-79
2021/04/25 10:28:57;;;;;;;7.05;2.17;;;;;;;11.80;53.63;101608.59;5123459;28;20109;-80
2021/04/25 10:31:36;;;;;;;8.98;2.95;;;;;;;12.17;54.05;101605.03;5112490;28;20066;-79
2021/04/25 10:34:17;;;;;;;12.90;3.10;;;;;;;12.40;52.48;101607.03;5113046;28;20039;-80
2021/04/25 10:36:47;;;;;;;5.53;1.88;;;;;;;11.70;53.54;101599.22;5109456;28;20058;-79
2021/04/25 10:39:45;;;;;;;7.90;2.30;;;;;;;12.27;53.71;101600.44;5115567;29;20042;-79
2021/04/25 10:42:25;;;;;;;8.20;2.92;;;;;;;12.07;54.00;101597.44;5116099;28;20050;-79
2021/04/25 10:44:58;;;;;;;9.60;3.17;;;;;;;11.93;54.31;101597.78;5116930;28;20163;-81
2021/04/25 10:47:32;;;;;;;17.90;6.80;;;;;;;12.08;54.35;101599.16;5114905;28;20070;-79
2021/04/25 10:50:14;;;;;;;12.55;3.70;;;;;;;11.46;53.94;101603.25;5115351;28;20034;-81
2021/04/25 10:52:48;;;;;;;8.00;2.10;;;;;;;11.89;56.13;101596.16;5111751;29;20919;-81
2021/04/25 10:55:19;;;;;;;7.00;2.20;;;;;;;11.85;53.72;101604.09;5128195;28;20034;-80
2021/04/25 10:57:53;;;;;;;5.00;2.33;;;;;;;12.24;52.73;101603.09;5116893;28;20039;-79
2021/04/25 11:00:29;;;;;;;9.57;2.25;;;;;;;12.13;53.95;101605.16;5115350;29;20036;-78
2021/04/25 11:03:08;;;;;;;7.82;3.47;;;;;;;11.99;53.60;101595.00;5114673;28;20492;-79
2021/04/25 11:05:39;;;;;;;6.70;2.47;;;;;;;11.46;54.04;101610.25;5122538;28;20038;-79
2021/04/25 11:08:12;;;;;;;4.90;2.17;;;;;;;11.65;54.02;101608.97;5111853;28;20031;-79
2021/04/25 11:10:51;;;;;;;6.25;2.10;;;;;;;11.28;55.07;101606.28;5122146;28;20400;-79
2021/04/25 11:13:34;;;;;;;9.70;2.30;;;;;;;11.03;56.17;101612.06;5120873;28;20054;-79
2021/04/25 11:16:09;;;;;;;6.97;2.20;;;;;;;11.03;55.57;101606.84;5117720;28;20035;-79
2021/04/25 11:18:42;;;;;;;8.10;2.17;;;;;;;11.54;54.62;101610.94;5116233;28;20046;-81
2021/04/25 11:21:38;;;;;;;10.25;4.47;;;;;;;11.50;54.39;101609.28;5111717;29;20043;-79
2021/04/25 11:24:08;;;;;;;8.63;2.60;;;;;;;11.27;53.79;101617.63;5126947;28;20068;-81
2021/04/25 11:26:43;;;;;;;9.50;2.50;;;;;;;11.15;53.22;101609.19;5129439;28;20027;-80
2021/04/25 11:29:14;;;;;;;7.85;2.42;;;;;;;11.11;54.17;101610.16;5113877;29;20047;-80
2021/04/25 11:34:33;;;;;;;13.68;4.88;;;;;;;11.32;53.46;101605.34;5114195;28;20527;-80
2021/04/25 11:37:15;;;;;;;10.13;2.70;;;;;;;11.10;54.11;101619.75;5119729;28;20406;-80
2021/04/25 11:39:47;;;;;;;6.93;2.10;;;;;;;11.10;54.94;101609.28;5113528;29;20419;-80
2021/04/25 11:42:28;;;;;;;6.93;2.35;;;;;;;11.05;54.77;101610.28;5128639;28;20054;-80
2021/04/25 11:45:02;;;;;;;8.63;2.13;;;;;;;9.71;56.59;101616.22;5117735;28;20485;-80
2021/04/25 11:47:33;;;;;;;6.18;2.28;;;;;;;10.01;56.94;101607.91;5128390;28;20115;-79
2021/04/25 11:50:04;;;;;;;8.25;1.90;;;;;;;10.43;55.75;101601.94;5110395;29;20031;-80